createdAt,value
2022-10-08T00:01:49.657Z,5.93
2022-10-08T00:04:17.888Z,5.93
2022-10-08T00:06:46.007Z,5.70
2022-10-08T00:09:15.581Z,5.43
2022-10-08T00:11:43.892Z,5.20
2022-10-08T00:14:11.849Z,5.20
2022-10-08T00:16:42.014Z,5.93
2022-10-08T00:19:13.538Z,5.33
2022-10-08T00:21:43.981Z,5.57
2022-10-08T00:24:16.908Z,5.10
2022-10-08T00:26:45.725Z,5.30
2022-10-08T00:29:15.057Z,5.37
2022-10-08T00:31:45.505Z,5.17
2022-10-08T00:34:16.042Z,5.30
2022-10-08T00:36:43.946Z,5.20
2022-10-08T00:39:13.906Z,5.43
2022-10-08T00:41:45.476Z,5.20
2022-10-08T00:44:50.802Z,4.97
2022-10-08T00:47:25.742Z,4.60
2022-10-08T00:49:56.727Z,5.00
2022-10-08T00:52:28.629Z,4.87
2022-10-08T00:54:57.958Z,4.90
2022-10-08T00:57:27.879Z,4.30
2022-10-08T00:59:56.582Z,4.60
2022-10-08T01:02:24.669Z,4.33
2022-10-08T01:04:52.821Z,4.10
2022-10-08T01:07:25.821Z,4.80
2022-10-08T01:10:01.341Z,4.67
2022-10-08T01:12:41.687Z,4.80
2022-10-08T01:15:16.380Z,4.13
2022-10-08T01:17:52.898Z,3.87
2022-10-08T01:20:37.276Z,3.77
2022-10-08T01:23:41.545Z,4.30
2022-10-08T01:26:48.500Z,4.40
2022-10-08T01:29:22.275Z,4.50
2022-10-08T01:31:54.091Z,4.57
2022-10-08T01:34:27.284Z,4.30
2022-10-08T01:36:57.625Z,3.97
2022-10-08T01:39:31.450Z,4.37
2022-10-08T01:42:03.336Z,4.73
2022-10-08T01:44:36.254Z,4.23
2022-10-08T01:47:08.321Z,4.63
2022-10-08T01:49:41.938Z,4.53
2022-10-08T01:52:15.130Z,4.20
2022-10-08T01:54:46.442Z,4.10
2022-10-08T01:57:15.023Z,4.30
2022-10-08T01:59:47.965Z,5.20
2022-10-08T02:02:20.234Z,3.83
2022-10-08T02:04:49.961Z,4.13
2022-10-08T02:07:20.446Z,3.40
2022-10-08T02:09:52.525Z,4.47
2022-10-08T02:12:23.111Z,3.90
2022-10-08T02:14:55.329Z,4.03
2022-10-08T02:17:28.863Z,4.23
2022-10-08T02:20:00.972Z,4.13
2022-10-08T02:22:34.362Z,4.33
2022-10-08T02:25:07.844Z,3.67
2022-10-08T02:27:49.332Z,4.43
2022-10-08T02:30:19.247Z,4.43
2022-10-08T02:32:51.493Z,4.17
2022-10-08T02:35:25.454Z,4.67
2022-10-08T02:37:59.483Z,4.23
2022-10-08T02:40:29.178Z,4.27
2022-10-08T02:43:02.628Z,3.60
2022-10-08T02:45:35.681Z,4.47
2022-10-08T02:48:09.040Z,4.67
2022-10-08T02:50:40.522Z,4.07
2022-10-08T02:53:09.075Z,4.83
2022-10-08T02:55:45.605Z,4.30
2022-10-08T02:58:14.717Z,3.80
2022-10-08T03:00:50.498Z,4.80
2022-10-08T03:03:24.789Z,3.87
2022-10-08T03:05:53.639Z,4.03
2022-10-08T03:08:22.629Z,3.87
2022-10-08T03:10:51.475Z,4.23
2022-10-08T03:13:20.940Z,3.93
2022-10-08T03:15:53.560Z,3.73
2022-10-08T03:18:24.502Z,4.03
2022-10-08T03:20:55.929Z,4.20
2022-10-08T03:23:25.484Z,3.43
2022-10-08T03:25:53.390Z,3.93
2022-10-08T03:28:21.468Z,4.47
2022-10-08T03:30:50.884Z,3.70
2022-10-08T03:33:19.013Z,3.63
2022-10-08T03:35:47.084Z,4.67
2022-10-08T03:38:16.591Z,3.33
2022-10-08T03:40:44.984Z,3.90
2022-10-08T03:43:13.124Z,4.87
2022-10-08T03:45:49.493Z,4.27
2022-10-08T03:48:19.532Z,4.27
2022-10-08T03:50:52.927Z,4.90
2022-10-08T03:53:21.142Z,3.70
2022-10-08T03:55:49.352Z,4.47
2022-10-08T03:58:17.355Z,3.70
2022-10-08T04:00:45.717Z,4.77
2022-10-08T04:03:13.696Z,3.03
2022-10-08T04:05:50.210Z,4.00
2022-10-08T04:08:18.108Z,3.93
2022-10-08T04:10:46.107Z,4.10
2022-10-08T04:13:14.106Z,4.43
2022-10-08T04:15:42.167Z,4.37
2022-10-08T04:18:12.779Z,4.03
2022-10-08T04:20:42.352Z,3.83
2022-10-08T04:23:11.075Z,4.23
2022-10-08T04:25:39.033Z,3.53
2022-10-08T04:28:07.502Z,4.00
2022-10-08T04:30:35.736Z,4.07
2022-10-08T04:33:03.799Z,4.90
2022-10-08T04:35:31.761Z,4.63
2022-10-08T04:38:01.104Z,4.40
2022-10-08T04:40:28.984Z,4.53
2022-10-08T04:42:56.882Z,4.73
2022-10-08T04:45:24.766Z,4.70
2022-10-08T04:47:52.638Z,4.47
2022-10-08T04:50:20.713Z,3.80
2022-10-08T04:52:48.954Z,4.03
2022-10-08T04:55:18.484Z,4.13
2022-10-08T04:57:46.462Z,3.90
2022-10-08T05:00:18.248Z,5.07
2022-10-08T05:02:47.348Z,4.00
2022-10-08T05:05:16.412Z,4.10
2022-10-08T05:07:44.585Z,4.37
2022-10-08T05:10:12.759Z,3.93
2022-10-08T05:12:42.165Z,3.63
2022-10-08T05:15:11.456Z,4.17
2022-10-08T05:17:39.396Z,3.90
2022-10-08T05:20:08.317Z,4.87
2022-10-08T05:22:36.308Z,3.53
2022-10-08T05:25:04.492Z,3.83
2022-10-08T05:27:32.524Z,4.43
2022-10-08T05:30:02.505Z,4.07
2022-10-08T05:32:30.530Z,3.33
2022-10-08T05:34:58.588Z,4.63
2022-10-08T05:37:26.895Z,3.80
2022-10-08T05:39:54.856Z,3.80
2022-10-08T05:42:22.766Z,3.73
2022-10-08T05:44:50.725Z,3.97
2022-10-08T05:47:20.013Z,3.80
2022-10-08T05:49:47.875Z,3.70
2022-10-08T05:52:15.739Z,4.33
2022-10-08T05:54:43.990Z,4.40
2022-10-08T05:57:11.893Z,4.83
2022-10-08T05:59:39.710Z,4.43
2022-10-08T06:02:08.222Z,4.47
2022-10-08T06:04:37.667Z,3.40
2022-10-08T06:07:05.771Z,4.03
2022-10-08T06:09:33.768Z,4.67
2022-10-08T06:12:01.894Z,4.73
2022-10-08T06:14:29.856Z,4.33
2022-10-08T06:16:57.931Z,4.60
2022-10-08T06:19:26.258Z,3.83
2022-10-08T06:21:55.663Z,4.00
2022-10-08T06:24:23.691Z,4.33
2022-10-08T06:26:51.704Z,4.20
2022-10-08T06:29:22.513Z,4.33
2022-10-08T06:31:50.552Z,4.63
2022-10-08T06:34:18.637Z,4.90
2022-10-08T06:36:46.622Z,5.17
2022-10-08T06:39:19.025Z,4.67
2022-10-08T06:41:47.035Z,5.20
2022-10-08T06:44:16.131Z,4.20
2022-10-08T06:46:44.407Z,4.13
2022-10-08T06:49:13.410Z,4.83
2022-10-08T06:51:41.369Z,4.23
2022-10-08T06:54:09.468Z,3.63
2022-10-08T06:56:39.871Z,4.87
2022-10-08T06:59:08.281Z,4.97
2022-10-08T07:01:37.255Z,4.33
2022-10-08T07:04:06.899Z,3.67
2022-10-08T07:06:35.326Z,4.90
2022-10-08T07:09:04.855Z,4.90
2022-10-08T07:11:33.715Z,5.43
2022-10-08T07:14:03.219Z,5.20
2022-10-08T07:16:31.762Z,4.10
2022-10-08T07:18:59.985Z,5.13
2022-10-08T07:21:29.520Z,5.90
2022-10-08T07:23:59.360Z,4.30
2022-10-08T07:26:29.780Z,4.40
2022-10-08T07:28:59.294Z,4.53
2022-10-08T07:31:31.394Z,3.83
2022-10-08T07:33:59.891Z,4.50
2022-10-08T07:36:29.166Z,4.97
2022-10-08T07:38:57.890Z,3.93
2022-10-08T07:41:26.609Z,3.97
2022-10-08T07:43:56.386Z,4.37
2022-10-08T07:46:24.423Z,3.83
2022-10-08T07:48:54.803Z,3.33
2022-10-08T07:51:22.781Z,3.47
2022-10-08T07:53:50.799Z,3.40
2022-10-08T07:56:20.225Z,3.47
2022-10-08T07:58:49.179Z,2.20
2022-10-08T08:01:18.895Z,2.30
2022-10-08T08:03:46.846Z,2.97
2022-10-08T08:06:17.663Z,1.57
2022-10-08T08:08:46.940Z,1.83
2022-10-08T08:11:17.161Z,2.40
2022-10-08T08:13:45.718Z,2.27
2022-10-08T08:16:15.767Z,1.80
2022-10-08T08:18:46.154Z,1.90
2022-10-08T08:21:16.941Z,2.43
2022-10-08T08:23:47.364Z,1.60
2022-10-08T08:26:17.138Z,1.83
2022-10-08T08:28:46.688Z,1.73
2022-10-08T08:31:16.532Z,1.40
2022-10-08T08:33:48.291Z,1.10
2022-10-08T08:36:20.982Z,2.23
2022-10-08T08:38:48.989Z,1.60
2022-10-08T08:41:30.070Z,1.58
2022-10-08T08:44:01.916Z,1.37
2022-10-08T08:46:45.272Z,1.20
2022-10-08T08:49:21.217Z,1.58
2022-10-08T08:51:52.315Z,1.70
2022-10-08T08:54:39.655Z,1.10
2022-10-08T08:57:35.015Z,1.52
2022-10-08T09:00:06.386Z,2.13
2022-10-08T09:02:39.376Z,1.58
2022-10-08T09:05:13.248Z,1.38
2022-10-08T09:07:49.130Z,1.20
2022-10-08T09:10:22.726Z,1.30
2022-10-08T09:13:01.616Z,1.60
2022-10-08T09:15:41.426Z,1.67
2022-10-08T09:18:58.759Z,1.45
2022-10-08T09:21:35.300Z,1.08
2022-10-08T09:24:08.586Z,1.38
2022-10-08T09:26:37.219Z,1.73
2022-10-08T09:29:07.071Z,1.80
2022-10-08T09:31:43.232Z,1.37
2022-10-08T09:34:28.559Z,1.53
2022-10-08T09:37:13.502Z,1.60
2022-10-08T09:40:28.484Z,1.20
2022-10-08T09:43:17.472Z,1.52
2022-10-08T09:45:47.325Z,1.63
2022-10-08T09:51:52.810Z,0.98
2022-10-08T09:54:45.339Z,1.48
2022-10-08T09:57:16.945Z,1.23
2022-10-08T09:59:54.274Z,1.60
2022-10-08T10:02:32.601Z,1.45
2022-10-08T10:05:02.113Z,1.85
2022-10-08T10:07:40.045Z,1.85
2022-10-08T10:10:19.909Z,1.67
2022-10-08T10:12:55.421Z,1.57
2022-10-08T10:15:38.527Z,1.67
2022-10-08T10:18:16.011Z,1.50
2022-10-08T10:20:48.231Z,1.90
2022-10-08T10:23:31.457Z,1.77
2022-10-08T10:26:22.207Z,1.93
2022-10-08T10:31:45.468Z,1.93
2022-10-08T10:34:49.410Z,2.10
2022-10-08T10:37:50.439Z,1.37
2022-10-08T10:40:58.409Z,2.20
2022-10-08T10:44:06.668Z,2.50
2022-10-08T10:50:54.461Z,2.50
2022-10-08T10:53:53.691Z,2.67
2022-10-08T10:57:12.842Z,2.30
2022-10-08T11:00:28.291Z,2.47
2022-10-08T11:09:00.937Z,2.23
2022-10-08T11:10:28.454Z,2.40
2022-10-08T11:13:08.854Z,2.53
2022-10-08T11:15:57.558Z,2.23
2022-10-08T11:18:35.397Z,2.30
2022-10-08T11:21:26.079Z,2.43
2022-10-08T11:24:22.593Z,2.20
2022-10-08T11:26:58.622Z,1.80
2022-10-08T11:29:38.804Z,2.37
2022-10-08T11:32:12.319Z,2.20
2022-10-08T11:34:43.953Z,2.40
2022-10-08T11:37:18.914Z,2.57
2022-10-08T11:40:00.768Z,2.40
2022-10-08T11:42:41.279Z,2.90
2022-10-08T11:45:34.874Z,2.57
2022-10-08T11:48:06.487Z,1.73
2022-10-08T11:50:44.851Z,2.00
2022-10-08T11:53:25.725Z,2.20
2022-10-08T11:56:22.537Z,1.83
2022-10-08T11:58:55.333Z,1.83
2022-10-08T12:01:25.356Z,1.67
2022-10-08T12:04:06.273Z,1.90
2022-10-08T12:06:36.859Z,1.90
2022-10-08T12:09:06.903Z,2.07
2022-10-08T12:11:51.358Z,1.70
2022-10-08T12:14:47.547Z,1.93
2022-10-08T12:17:17.832Z,1.70
2022-10-08T12:20:28.473Z,1.83
2022-10-08T12:23:05.046Z,1.60
2022-10-08T12:25:46.601Z,1.90
2022-10-08T12:28:57.384Z,1.70
2022-10-08T12:31:47.634Z,1.50
2022-10-08T12:34:22.824Z,1.80
2022-10-08T12:37:06.314Z,1.90
2022-10-08T12:39:46.801Z,1.93
2022-10-08T12:42:34.603Z,1.60
2022-10-08T12:45:44.775Z,1.20
2022-10-08T12:49:05.963Z,1.80
2022-10-08T12:51:48.727Z,1.60
2022-10-08T12:54:23.040Z,1.50
2022-10-08T12:56:59.071Z,1.30
2022-10-08T12:59:33.029Z,1.53
2022-10-08T13:02:31.399Z,1.87
2022-10-08T13:04:59.700Z,1.73
2022-10-08T13:07:39.415Z,1.90
2022-10-08T13:10:21.448Z,1.47
2022-10-08T13:13:05.752Z,1.57
2022-10-08T13:15:34.848Z,1.27
2022-10-08T13:18:14.522Z,1.33
2022-10-08T13:20:58.992Z,1.30
2022-10-08T13:23:35.665Z,1.47
2022-10-08T13:26:03.789Z,1.57
2022-10-08T13:28:59.474Z,1.40
2022-10-08T13:31:25.074Z,1.63
2022-10-08T13:33:55.247Z,1.50
2022-10-08T13:36:27.762Z,1.70
2022-10-08T13:39:19.647Z,1.40
2022-10-08T13:41:55.985Z,1.37
2022-10-08T13:44:41.289Z,1.10
2022-10-08T13:47:14.301Z,1.30
2022-10-08T13:49:46.690Z,1.13
2022-10-08T13:52:16.946Z,1.20
2022-10-08T13:54:47.050Z,1.60
2022-10-08T13:57:18.296Z,1.30
2022-10-08T13:59:52.041Z,1.30
2022-10-08T14:03:13.052Z,1.30
2022-10-08T14:05:17.161Z,1.10
2022-10-08T14:07:46.493Z,1.63
2022-10-08T14:10:18.335Z,1.17
2022-10-08T14:12:52.266Z,1.93
2022-10-08T14:15:20.571Z,1.30
2022-10-08T14:17:50.747Z,1.20
2022-10-08T14:20:19.001Z,1.17
2022-10-08T14:22:47.121Z,1.20
2022-10-08T14:25:19.398Z,1.60
2022-10-08T14:27:47.722Z,1.37
2022-10-08T14:30:16.969Z,1.63
2022-10-08T14:32:45.074Z,1.20
2022-10-08T14:35:13.718Z,1.47
2022-10-08T14:37:41.634Z,1.70
2022-10-08T14:40:15.619Z,1.00
2022-10-08T14:42:45.161Z,1.17
2022-10-08T14:45:13.242Z,1.87
2022-10-08T14:47:41.999Z,1.30
2022-10-08T14:50:10.329Z,1.53
2022-10-08T14:52:43.910Z,1.53
2022-10-08T14:55:13.307Z,1.60
2022-10-08T14:57:41.865Z,1.90
2022-10-08T15:00:13.133Z,1.67
2022-10-08T15:02:44.046Z,1.87
2022-10-08T15:05:12.049Z,1.73
2022-10-08T15:07:40.066Z,2.07
2022-10-08T15:10:09.245Z,1.37
2022-10-08T15:12:37.296Z,1.40
2022-10-08T15:15:06.906Z,1.10
2022-10-08T15:17:36.185Z,1.43
2022-10-08T15:20:04.383Z,2.00
2022-10-08T15:22:32.318Z,2.10
2022-10-08T15:25:00.281Z,2.03
2022-10-08T15:27:28.126Z,1.13
2022-10-08T15:29:56.323Z,1.40
2022-10-08T15:32:28.369Z,0.60
2022-10-08T15:34:59.798Z,0.93
2022-10-08T15:37:27.607Z,1.13
2022-10-08T15:39:55.542Z,0.80
2022-10-08T15:42:23.478Z,0.73
2022-10-08T15:44:51.365Z,1.10
2022-10-08T15:47:19.324Z,1.20
2022-10-08T15:49:47.234Z,1.27
2022-10-08T15:52:18.345Z,0.90
2022-10-08T15:54:46.848Z,1.30
2022-10-08T15:57:16.129Z,1.13
2022-10-08T15:59:44.706Z,0.83
2022-10-08T16:02:16.943Z,1.00
2022-10-08T16:04:47.782Z,1.00
2022-10-08T16:07:17.211Z,1.03
2022-10-08T16:09:45.059Z,1.33
2022-10-08T16:12:13.051Z,1.17
2022-10-08T16:14:41.118Z,1.57
2022-10-08T16:17:09.593Z,1.10
2022-10-08T16:19:37.536Z,1.33
2022-10-08T16:22:05.877Z,1.00
2022-10-08T16:24:35.234Z,1.40
2022-10-08T16:27:03.313Z,1.47
2022-10-08T16:29:31.239Z,0.83
2022-10-08T16:31:59.567Z,1.10
2022-10-08T16:34:28.720Z,0.93
2022-10-08T16:36:59.363Z,1.10
2022-10-08T16:39:27.839Z,1.30
2022-10-08T16:41:57.181Z,1.00
2022-10-08T16:44:25.044Z,0.93
2022-10-08T16:46:54.206Z,0.70
2022-10-08T16:49:25.843Z,0.60
2022-10-08T16:51:55.159Z,0.70
2022-10-08T16:54:23.194Z,0.73
2022-10-08T16:56:51.620Z,0.87
2022-10-08T16:59:23.309Z,0.80
2022-10-08T17:01:53.717Z,0.80
2022-10-08T17:04:23.568Z,0.80
2022-10-08T17:06:51.566Z,1.00
2022-10-08T17:09:20.540Z,1.50
2022-10-08T17:11:48.602Z,1.70
2022-10-08T17:14:17.051Z,1.00
2022-10-08T17:16:46.745Z,0.70
2022-10-08T17:19:15.147Z,1.00
2022-10-08T17:21:43.334Z,1.17
2022-10-08T17:24:12.830Z,1.87
2022-10-08T17:26:41.876Z,1.00
2022-10-08T17:29:11.556Z,1.30
2022-10-08T17:31:39.838Z,0.90
2022-10-08T17:34:09.998Z,1.00
2022-10-08T17:36:39.904Z,0.77
2022-10-08T17:39:11.235Z,1.27
2022-10-08T17:41:41.000Z,1.10
2022-10-08T17:44:10.521Z,0.87
2022-10-08T17:46:40.293Z,1.07
2022-10-08T17:49:09.567Z,1.30
2022-10-08T17:51:37.355Z,2.00
2022-10-08T17:54:07.368Z,2.20
2022-10-08T17:56:36.132Z,1.70
2022-10-08T17:59:04.918Z,1.77
2022-10-08T18:01:34.579Z,2.20
2022-10-08T18:04:05.201Z,1.87
2022-10-08T18:06:36.753Z,2.27
2022-10-08T18:09:07.790Z,2.57
2022-10-08T18:11:37.280Z,2.60
2022-10-08T18:14:07.144Z,2.40
2022-10-08T18:16:35.560Z,2.50
2022-10-08T18:19:07.785Z,3.20
2022-10-08T18:21:38.119Z,1.77
2022-10-08T18:24:06.694Z,1.97
2022-10-08T18:26:37.197Z,2.00
2022-10-08T18:29:09.000Z,2.13
2022-10-08T18:31:37.792Z,3.33
2022-10-08T18:34:08.886Z,3.60
2022-10-08T18:36:39.517Z,2.90
2022-10-08T18:39:09.887Z,2.47
2022-10-08T18:41:41.187Z,2.40
2022-10-08T18:44:11.542Z,2.30
2022-10-08T18:46:40.731Z,2.90
2022-10-08T18:49:08.936Z,2.00
2022-10-08T18:51:38.200Z,1.73
2022-10-08T18:54:06.824Z,1.67
2022-10-08T18:56:39.701Z,1.90
2022-10-08T18:59:11.611Z,1.60
2022-10-08T19:01:42.640Z,2.03
2022-10-08T19:04:14.648Z,1.70
2022-10-08T19:06:45.863Z,1.90
2022-10-08T19:09:14.704Z,2.20
2022-10-08T19:11:45.375Z,2.03
2022-10-08T19:14:14.896Z,1.60
2022-10-08T19:16:43.995Z,1.43
2022-10-08T19:19:14.999Z,1.10
2022-10-08T19:21:44.794Z,1.30
2022-10-08T19:24:15.425Z,1.30
2022-10-08T19:26:44.573Z,1.40
2022-10-08T19:29:16.396Z,1.43
2022-10-08T19:31:47.400Z,1.87
2022-10-08T19:34:17.488Z,1.73
2022-10-08T19:36:47.090Z,2.17
2022-10-08T19:39:17.845Z,2.23
2022-10-08T19:41:45.805Z,3.20
2022-10-08T19:44:14.529Z,3.13
2022-10-08T19:46:42.533Z,2.53
2022-10-08T19:49:11.765Z,2.70
2022-10-08T19:51:41.500Z,2.10
2022-10-08T19:54:11.663Z,2.17
2022-10-08T19:56:39.919Z,2.40
2022-10-08T19:59:08.114Z,2.17
2022-10-08T20:01:39.243Z,1.73
2022-10-08T20:04:09.329Z,2.13
2022-10-08T20:06:39.872Z,1.93
2022-10-08T20:09:12.249Z,1.77
2022-10-08T20:11:41.502Z,1.80
2022-10-08T20:14:09.429Z,1.77
2022-10-08T20:16:39.608Z,1.67
2022-10-08T20:19:16.813Z,1.87
2022-10-08T20:21:44.937Z,1.60
2022-10-08T20:24:14.863Z,2.07
2022-10-08T20:26:44.182Z,1.27
2022-10-08T20:29:14.301Z,1.70
2022-10-08T20:31:44.172Z,1.73
2022-10-08T20:34:14.671Z,1.90
2022-10-08T20:36:42.855Z,1.70
2022-10-08T20:39:12.456Z,2.00
2022-10-08T20:41:41.771Z,1.70
2022-10-08T20:44:10.551Z,1.57
2022-10-08T20:46:39.482Z,1.93
2022-10-08T20:49:08.151Z,1.97
2022-10-08T20:51:36.274Z,2.60
2022-10-08T20:54:05.902Z,1.67
2022-10-08T20:56:39.596Z,2.00
2022-10-08T20:59:09.618Z,2.00
2022-10-08T21:01:39.368Z,1.60
2022-10-08T21:04:08.374Z,1.80
2022-10-08T21:06:38.222Z,1.57
2022-10-08T21:09:06.595Z,2.07
2022-10-08T21:11:35.645Z,1.30
2022-10-08T21:14:03.739Z,2.00
2022-10-08T21:16:34.899Z,1.77
2022-10-08T21:19:04.984Z,1.50
2022-10-08T21:21:34.135Z,1.80
2022-10-08T21:24:02.343Z,1.37
2022-10-08T21:26:34.834Z,1.60
2022-10-08T21:29:04.225Z,1.60
2022-10-08T21:31:36.019Z,1.57
2022-10-08T21:34:04.972Z,2.07
2022-10-08T21:36:35.390Z,2.30
2022-10-08T21:39:05.228Z,1.97
2022-10-08T21:41:34.692Z,1.90
2022-10-08T21:44:04.805Z,1.37
2022-10-08T21:46:36.390Z,1.10
2022-10-08T21:49:06.751Z,0.70
2022-10-08T21:51:35.837Z,1.37
2022-10-08T21:54:06.540Z,0.90
2022-10-08T21:56:37.299Z,1.37
2022-10-08T21:59:06.639Z,1.10
2022-10-08T22:01:38.131Z,1.37
2022-10-08T22:04:08.428Z,1.13
2022-10-08T22:06:38.448Z,0.80
2022-10-08T22:09:07.466Z,0.80
2022-10-08T22:11:35.800Z,1.27
2022-10-08T22:14:04.147Z,1.30
2022-10-08T22:16:32.222Z,0.73
2022-10-08T22:19:01.726Z,1.00
2022-10-08T22:21:29.750Z,0.90
2022-10-08T22:23:57.895Z,0.93
2022-10-08T22:26:29.724Z,1.33
2022-10-08T22:28:58.025Z,1.20
2022-10-08T22:31:26.656Z,1.50
2022-10-08T22:33:55.052Z,1.33
2022-10-08T22:36:26.681Z,1.43
2022-10-08T22:38:56.064Z,1.60
2022-10-08T22:41:25.462Z,1.57
2022-10-08T22:43:54.148Z,2.00
2022-10-08T22:46:24.197Z,2.50
2022-10-08T22:48:52.594Z,1.67
2022-10-08T22:51:22.096Z,2.27
2022-10-08T22:53:51.649Z,2.23
2022-10-08T22:56:21.534Z,1.50
2022-10-08T22:58:50.206Z,2.30
2022-10-08T23:01:20.118Z,2.43
2022-10-08T23:03:49.014Z,2.67
2022-10-08T23:06:19.179Z,1.43
2022-10-08T23:08:48.397Z,1.93
2022-10-08T23:11:17.937Z,1.77
2022-10-08T23:13:46.838Z,2.10
2022-10-08T23:16:16.978Z,1.57
2022-10-08T23:18:47.213Z,2.03
2022-10-08T23:21:17.402Z,1.83
2022-10-08T23:23:46.933Z,1.80
2022-10-08T23:26:16.004Z,1.60
2022-10-08T23:28:46.127Z,1.70
2022-10-08T23:31:15.700Z,1.83
2022-10-08T23:33:45.589Z,1.60
2022-10-08T23:36:16.827Z,1.30
2022-10-08T23:38:45.046Z,2.03
2022-10-08T23:41:14.156Z,1.83
2022-10-08T23:43:43.859Z,1.70
2022-10-08T23:46:14.841Z,2.47
2022-10-08T23:48:43.126Z,2.50
2022-10-08T23:51:12.468Z,1.63
2022-10-08T23:53:41.250Z,1.50
2022-10-08T23:56:09.882Z,1.50
2022-10-08T23:58:37.971Z,1.80
